Simcha — PE7688 — position and weather

sailwx.info

Track history (hours):
 
Tides and Currents Weather Stations Pressure Air Temp Water Temp Dewpoint Dewpoint Depression Visibility Wind Speed Wind Dir Waves Ship Positions

Simcha

Last reported at 2017-Feb-22 07:33 UTC. Time now 2017-Feb-22 08:25 UTC.
Position N 51°49' E 006°16'.

Length 110 m.

Type: Ship. MMSI: 244780014.

Date/timePositionNaut miles runAvg speedWind from/ knotsBaromVisibWave heightAir tempDewpointWater temp
2017-Feb-22 07:33N 51°49' E 006°16'5 5.0
2017-Feb-22 06:33N 51°51' E 006°08'1 0.9
2017-Feb-22 05:33N 51°51' E 006°07'0 0.0
2017-Feb-22 04:33N 51°51' E 006°07'0 0.0
2017-Feb-22 03:33N 51°51' E 006°07'0 0.0
2017-Feb-22 02:33N 51°51' E 006°07'0 0.0
2017-Feb-22 01:33N 51°51' E 006°07'0 0.0
2017-Feb-22 00:33N 51°51' E 006°07'0 0.0
2017-Feb-21 23:33N 51°51' E 006°07'0 0.0
2017-Feb-21 22:33N 51°51' E 006°07'0 0.0
2017-Feb-21 21:33N 51°51' E 006°07'0 0.0
2017-Feb-21 20:33N 51°51' E 006°07'0 0.5
2017-Feb-21 19:33N 51°51' E 006°06'0 0.5
2017-Feb-21 18:33N 51°51' E 006°05'0 0.0
2017-Feb-21 17:33N 51°51' E 006°05'0 0.0
2017-Feb-21 16:33N 51°51' E 006°05'0 0.0
2017-Feb-21 15:33N 51°51' E 006°05'0 0.0
2017-Feb-21 14:33N 51°51' E 006°05'0 0.0
2017-Feb-21 13:33N 51°51' E 006°05'0 0.0
2017-Feb-21 12:33N 51°51' E 006°05'0 0.1
2017-Feb-21 11:33N 51°51' E 006°05'5 4.6
2017-Feb-21 10:33N 51°54' E 005°60'4 3.8
2017-Feb-21 09:31N 51°58' E 005°59'3 3.2
2017-Feb-21 08:33N 52°00' E 006°03'2 2.4
2017-Feb-21 07:33N 51°60' E 006°07'4 3.3
2017-Feb-21 06:27N 52°03' E 006°08'4 3.9
2017-Feb-21 05:28N 52°06' E 006°13'5 0.4
2017-Feb-20 18:20N 52°10' E 006°16'4 5.6
2017-Feb-20 17:33N 52°10' E 006°23'7 5.2
2017-Feb-20 16:13N 52°13' E 006°33'3 4.9
2017-Feb-20 15:33N 52°14' E 006°38'3 1.7
2017-Feb-20 13:33N 52°15' E 006°43'3 2.5
2017-Feb-20 12:33N 52°15' E 006°47'0 0.3
2017-Feb-20 11:32N 52°15' E 006°48'0 0.0
2017-Feb-20 10:32N 52°15' E 006°48'0 0.0
2017-Feb-20 09:33N 52°15' E 006°48'0 0.0
2017-Feb-20 08:33N 52°15' E 006°48'1 0.7
2017-Feb-20 07:33N 52°15' E 006°47'7 0.5
2017-Feb-19 17:33N 52°14' E 006°35'6 6.4
2017-Feb-19 16:33N 52°10' E 006°27'10 3.3
2017-Feb-19 13:32N 52°07' E 006°11'6 5.5
2017-Feb-19 12:33N 52°02' E 006°08'6 5.9
2017-Feb-19 11:33N 51°59' E 005°60'7 6.5
2017-Feb-19 10:33N 51°52' E 006°03'9 9.3
2017-Feb-19 09:33N 51°49' E 006°17'11 8.3
2017-Feb-19 08:13N 51°41' E 006°28'5 8.0
2017-Feb-19 07:33N 51°38' E 006°36'25 2.3
2017-Feb-18 20:33N 51°13' E 006°45'4 0.1
2017-Feb-16 17:22N 51°10' E 006°48'3 3.3
2017-Feb-16 16:33N 51°11' E 006°44'2 2.0
2017-Feb-16 15:28N 51°13' E 006°45'23 2.3
2017-Feb-16 05:25N 51°35' E 006°36'1 0.7
2017-Feb-16 04:31N 51°36' E 006°36'0 0.0
2017-Feb-16 03:25N 51°36' E 006°36'0 0.0
2017-Feb-16 02:29N 51°36' E 006°36'0 0.0
2017-Feb-16 01:33N 51°36' E 006°36'0 0.0
2017-Feb-16 00:33N 51°36' E 006°36'0 0.0
2017-Feb-15 23:05N 51°36' E 006°36'0 0.0
2017-Feb-15 22:27N 51°36' E 006°36'0 0.0
2017-Feb-15 21:13N 51°36' E 006°36'2 3.4
2017-Feb-15 20:31N 51°38' E 006°36'10 3.4
2017-Feb-15 17:33N 51°45' E 006°25'4 4.2
2017-Feb-15 16:33N 51°48' E 006°19'5 4.7
2017-Feb-15 15:33N 51°50' E 006°12'5 4.7
2017-Feb-15 14:33N 51°51' E 006°05'4 4.1
2017-Feb-15 13:33N 51°51' E 005°58'4 4.0
2017-Feb-15 12:33N 51°51' E 005°52'21 4.9
2017-Feb-15 08:12N 51°58' E 005°19'9 5.3
2017-Feb-15 06:33N 52°02' E 005°07'5 2.1
2017-Feb-15 04:13N 52°07' E 005°04'0 0.0
2017-Feb-15 03:09N 52°07' E 005°04'0 0.0
2017-Feb-14 14:07N 52°07' E 005°04'5 7.9
2017-Feb-14 13:33N 52°02' E 005°07'8 8.4
2017-Feb-14 12:33N 51°58' E 005°19'14 4.4
2017-Feb-14 09:19N 51°54' E 005°41'7 9.6
2017-Feb-14 08:33N 51°51' E 005°52'7 7.3
2017-Feb-14 07:33N 51°52' E 006°03'7 7.5
2017-Feb-14 06:33N 51°50' E 006°15'13 1.5
2017-Feb-13 21:18N 51°40' E 006°30'27 6.9
2017-Feb-13 17:20N 51°14' E 006°46'4 0.2
2017-Feb-12 17:33N 51°11' E 006°48'4 3.9
2017-Feb-12 16:33N 51°14' E 006°43'26 3.2
2017-Feb-12 08:32N 51°39' E 006°36'  
Track history (hours):
 
Tides and Currents Weather Stations Pressure Air Temp Water Temp Dewpoint Dewpoint Depression Visibility Wind Speed Wind Dir Waves Ship Positions

Simcha

Last reported at 2017-Feb-22 07:33 UTC. Time now 2017-Feb-22 08:25 UTC.
Position N 51°49' E 006°16'.

Length 110 m.

Type: Ship. MMSI: 244780014.

Date/timePositionNaut miles runAvg speedWind from/ knotsBaromVisibWave heightAir tempDewpointWater temp
2017-Feb-22 07:33N 51°49' E 006°16'5 5.0
2017-Feb-22 06:33N 51°51' E 006°08'1 0.9
2017-Feb-22 05:33N 51°51' E 006°07'0 0.0
2017-Feb-22 04:33N 51°51' E 006°07'0 0.0
2017-Feb-22 03:33N 51°51' E 006°07'0 0.0
2017-Feb-22 02:33N 51°51' E 006°07'0 0.0
2017-Feb-22 01:33N 51°51' E 006°07'0 0.0
2017-Feb-22 00:33N 51°51' E 006°07'0 0.0
2017-Feb-21 23:33N 51°51' E 006°07'0 0.0
2017-Feb-21 22:33N 51°51' E 006°07'0 0.0
2017-Feb-21 21:33N 51°51' E 006°07'0 0.0
2017-Feb-21 20:33N 51°51' E 006°07'0 0.5
2017-Feb-21 19:33N 51°51' E 006°06'0 0.5
2017-Feb-21 18:33N 51°51' E 006°05'0 0.0
2017-Feb-21 17:33N 51°51' E 006°05'0 0.0
2017-Feb-21 16:33N 51°51' E 006°05'0 0.0
2017-Feb-21 15:33N 51°51' E 006°05'0 0.0
2017-Feb-21 14:33N 51°51' E 006°05'0 0.0
2017-Feb-21 13:33N 51°51' E 006°05'0 0.0
2017-Feb-21 12:33N 51°51' E 006°05'0 0.1
2017-Feb-21 11:33N 51°51' E 006°05'5 4.6
2017-Feb-21 10:33N 51°54' E 005°60'4 3.8
2017-Feb-21 09:31N 51°58' E 005°59'3 3.2
2017-Feb-21 08:33N 52°00' E 006°03'2 2.4
2017-Feb-21 07:33N 51°60' E 006°07'4 3.3
2017-Feb-21 06:27N 52°03' E 006°08'4 3.9
2017-Feb-21 05:28N 52°06' E 006°13'5 0.4
2017-Feb-20 18:20N 52°10' E 006°16'4 5.6
2017-Feb-20 17:33N 52°10' E 006°23'7 5.2
2017-Feb-20 16:13N 52°13' E 006°33'3 4.9
2017-Feb-20 15:33N 52°14' E 006°38'3 1.7
2017-Feb-20 13:33N 52°15' E 006°43'3 2.5
2017-Feb-20 12:33N 52°15' E 006°47'0 0.3
2017-Feb-20 11:32N 52°15' E 006°48'0 0.0
2017-Feb-20 10:32N 52°15' E 006°48'0 0.0
2017-Feb-20 09:33N 52°15' E 006°48'0 0.0
2017-Feb-20 08:33N 52°15' E 006°48'1 0.7
2017-Feb-20 07:33N 52°15' E 006°47'7 0.5
2017-Feb-19 17:33N 52°14' E 006°35'6 6.4
2017-Feb-19 16:33N 52°10' E 006°27'10 3.3
2017-Feb-19 13:32N 52°07' E 006°11'6 5.5
2017-Feb-19 12:33N 52°02' E 006°08'6 5.9
2017-Feb-19 11:33N 51°59' E 005°60'7 6.5
2017-Feb-19 10:33N 51°52' E 006°03'9 9.3
2017-Feb-19 09:33N 51°49' E 006°17'11 8.3
2017-Feb-19 08:13N 51°41' E 006°28'5 8.0
2017-Feb-19 07:33N 51°38' E 006°36'25 2.3
2017-Feb-18 20:33N 51°13' E 006°45'4 0.1
2017-Feb-16 17:22N 51°10' E 006°48'3 3.3
2017-Feb-16 16:33N 51°11' E 006°44'2 2.0
2017-Feb-16 15:28N 51°13' E 006°45'23 2.3
2017-Feb-16 05:25N 51°35' E 006°36'1 0.7
2017-Feb-16 04:31N 51°36' E 006°36'0 0.0
2017-Feb-16 03:25N 51°36' E 006°36'0 0.0
2017-Feb-16 02:29N 51°36' E 006°36'0 0.0
2017-Feb-16 01:33N 51°36' E 006°36'0 0.0
2017-Feb-16 00:33N 51°36' E 006°36'0 0.0
2017-Feb-15 23:05N 51°36' E 006°36'0 0.0
2017-Feb-15 22:27N 51°36' E 006°36'0 0.0
2017-Feb-15 21:13N 51°36' E 006°36'2 3.4
2017-Feb-15 20:31N 51°38' E 006°36'10 3.4
2017-Feb-15 17:33N 51°45' E 006°25'4 4.2
2017-Feb-15 16:33N 51°48' E 006°19'5 4.7
2017-Feb-15 15:33N 51°50' E 006°12'5 4.7
2017-Feb-15 14:33N 51°51' E 006°05'4 4.1
2017-Feb-15 13:33N 51°51' E 005°58'4 4.0
2017-Feb-15 12:33N 51°51' E 005°52'21 4.9
2017-Feb-15 08:12N 51°58' E 005°19'9 5.3
2017-Feb-15 06:33N 52°02' E 005°07'5 2.1
2017-Feb-15 04:13N 52°07' E 005°04'0 0.0
2017-Feb-15 03:09N 52°07' E 005°04'0 0.0
2017-Feb-14 14:07N 52°07' E 005°04'5 7.9
2017-Feb-14 13:33N 52°02' E 005°07'8 8.4
2017-Feb-14 12:33N 51°58' E 005°19'14 4.4
2017-Feb-14 09:19N 51°54' E 005°41'7 9.6
2017-Feb-14 08:33N 51°51' E 005°52'7 7.3
2017-Feb-14 07:33N 51°52' E 006°03'7 7.5
2017-Feb-14 06:33N 51°50' E 006°15'13 1.5
2017-Feb-13 21:18N 51°40' E 006°30'27 6.9
2017-Feb-13 17:20N 51°14' E 006°46'4 0.2
2017-Feb-12 17:33N 51°11' E 006°48'4 3.9
2017-Feb-12 16:33N 51°14' E 006°43'26 3.2
2017-Feb-12 08:32N 51°39' E 006°36'  

Dump ship's entire track history